sensor_id;sensor_type;location;lat;lon;timestamp;P1;durP1;ratioP1;P2;durP2;ratioP2
57573;SDS011;68988;49.000;21.242;2024-02-28T00:00:00;2.75;;;2.55;;
57573;SDS011;68988;49.000;21.242;2024-02-28T00:02:25;2.88;;;2.05;;
57573;SDS011;68988;49.000;21.242;2024-02-28T00:04:50;2.70;;;2.50;;
57573;SDS011;68988;49.000;21.242;2024-02-28T00:07:16;2.50;;;2.30;;
57573;SDS011;68988;49.000;21.242;2024-02-28T00:09:42;4.25;;;2.30;;
57573;SDS011;68988;49.000;21.242;2024-02-28T00:12:08;2.45;;;2.28;;
57573;SDS011;68988;49.000;21.242;2024-02-28T00:14:33;2.40;;;2.30;;
57573;SDS011;68988;49.000;21.242;2024-02-28T00:16:58;2.53;;;2.40;;
57573;SDS011;68988;49.000;21.242;2024-02-28T00:19:24;2.53;;;2.38;;
57573;SDS011;68988;49.000;21.242;2024-02-28T00:21:50;2.30;;;2.20;;
57573;SDS011;68988;49.000;21.242;2024-02-28T00:24:15;2.75;;;2.55;;
57573;SDS011;68988;49.000;21.242;2024-02-28T00:26:41;2.70;;;2.50;;
57573;SDS011;68988;49.000;21.242;2024-02-28T00:29:08;2.40;;;2.20;;
57573;SDS011;68988;49.000;21.242;2024-02-28T00:31:33;2.10;;;2.00;;
57573;SDS011;68988;49.000;21.242;2024-02-28T00:33:59;2.17;;;2.08;;
57573;SDS011;68988;49.000;21.242;2024-02-28T00:36:24;2.50;;;2.30;;
57573;SDS011;68988;49.000;21.242;2024-02-28T00:38:49;2.35;;;2.25;;
57573;SDS011;68988;49.000;21.242;2024-02-28T00:41:15;3.00;;;2.80;;
57573;SDS011;68988;49.000;21.242;2024-02-28T00:43:40;2.83;;;2.30;;
57573;SDS011;68988;49.000;21.242;2024-02-28T00:46:06;2.47;;;2.28;;
57573;SDS011;68988;49.000;21.242;2024-02-28T00:48:36;4.72;;;2.50;;
57573;SDS011;68988;49.000;21.242;2024-02-28T00:51:01;2.78;;;2.53;;
57573;SDS011;68988;49.000;21.242;2024-02-28T00:53:28;3.13;;;2.85;;
57573;SDS011;68988;49.000;21.242;2024-02-28T00:55:53;2.65;;;2.45;;
57573;SDS011;68988;49.000;21.242;2024-02-28T00:58:20;2.50;;;2.33;;
57573;SDS011;68988;49.000;21.242;2024-02-28T01:00:45;2.63;;;2.42;;
57573;SDS011;68988;49.000;21.242;2024-02-28T01:03:11;2.25;;;2.15;;
57573;SDS011;68988;49.000;21.242;2024-02-28T01:05:39;2.40;;;2.20;;
57573;SDS011;68988;49.000;21.242;2024-02-28T01:08:05;2.15;;;2.03;;
57573;SDS011;68988;49.000;21.242;2024-02-28T01:10:31;2.50;;;2.35;;
57573;SDS011;68988;49.000;21.242;2024-02-28T01:12:57;2.90;;;2.55;;
57573;SDS011;68988;49.000;21.242;2024-02-28T01:15:23;2.63;;;2.47;;
57573;SDS011;68988;49.000;21.242;2024-02-28T01:17:48;2.83;;;2.60;;
57573;SDS011;68988;49.000;21.242;2024-02-28T01:20:13;2.33;;;2.22;;
57573;SDS011;68988;49.000;21.242;2024-02-28T01:22:39;2.15;;;2.05;;
57573;SDS011;68988;49.000;21.242;2024-02-28T01:25:05;2.83;;;2.05;;
57573;SDS011;68988;49.000;21.242;2024-02-28T01:27:30;2.95;;;2.47;;
57573;SDS011;68988;49.000;21.242;2024-02-28T01:29:57;2.47;;;2.38;;
57573;SDS011;68988;49.000;21.242;2024-02-28T01:32:22;2.55;;;2.40;;
57573;SDS011;68988;49.000;21.242;2024-02-28T01:34:48;2.95;;;2.58;;
57573;SDS011;68988;49.000;21.242;2024-02-28T01:37:13;2.47;;;2.28;;
57573;SDS011;68988;49.000;21.242;2024-02-28T01:39:39;2.45;;;2.35;;
57573;SDS011;68988;49.000;21.242;2024-02-28T01:42:04;2.55;;;2.38;;
57573;SDS011;68988;49.000;21.242;2024-02-28T01:44:30;1.98;;;1.88;;
57573;SDS011;68988;49.000;21.242;2024-02-28T01:46:55;2.80;;;2.60;;
57573;SDS011;68988;49.000;21.242;2024-02-28T01:49:23;2.83;;;2.63;;
57573;SDS011;68988;49.000;21.242;2024-02-28T01:51:49;2.10;;;2.00;;
57573;SDS011;68988;49.000;21.242;2024-02-28T01:54:16;3.30;;;2.25;;
57573;SDS011;68988;49.000;21.242;2024-02-28T01:56:43;2.13;;;2.03;;
57573;SDS011;68988;49.000;21.242;2024-02-28T01:59:09;2.53;;;2.33;;
57573;SDS011;68988;49.000;21.242;2024-02-28T02:01:36;2.75;;;2.40;;
57573;SDS011;68988;49.000;21.242;2024-02-28T02:04:02;2.45;;;2.28;;
57573;SDS011;68988;49.000;21.242;2024-02-28T02:06:28;2.25;;;2.00;;
57573;SDS011;68988;49.000;21.242;2024-02-28T02:08:54;2.67;;;2.47;;
57573;SDS011;68988;49.000;21.242;2024-02-28T02:11:20;2.65;;;2.45;;
57573;SDS011;68988;49.000;21.242;2024-02-28T02:13:47;2.60;;;2.47;;
57573;SDS011;68988;49.000;21.242;2024-02-28T02:16:16;5.05;;;2.75;;
57573;SDS011;68988;49.000;21.242;2024-02-28T02:18:42;2.58;;;2.42;;
57573;SDS011;68988;49.000;21.242;2024-02-28T02:21:08;2.53;;;2.42;;
57573;SDS011;68988;49.000;21.242;2024-02-28T02:23:36;2.03;;;1.92;;
57573;SDS011;68988;49.000;21.242;2024-02-28T02:26:06;2.40;;;2.30;;
57573;SDS011;68988;49.000;21.242;2024-02-28T02:28:31;2.30;;;2.10;;
57573;SDS011;68988;49.000;21.242;2024-02-28T02:30:57;2.05;;;1.95;;
57573;SDS011;68988;49.000;21.242;2024-02-28T02:33:22;2.60;;;2.40;;
57573;SDS011;68988;49.000;21.242;2024-02-28T02:35:47;2.40;;;2.30;;
57573;SDS011;68988;49.000;21.242;2024-02-28T02:38:13;2.30;;;2.15;;
57573;SDS011;68988;49.000;21.242;2024-02-28T02:40:38;2.50;;;2.40;;
57573;SDS011;68988;49.000;21.242;2024-02-28T02:43:03;2.95;;;2.75;;
57573;SDS011;68988;49.000;21.242;2024-02-28T02:45:29;2.80;;;2.60;;
57573;SDS011;68988;49.000;21.242;2024-02-28T02:47:54;2.28;;;2.17;;
57573;SDS011;68988;49.000;21.242;2024-02-28T02:50:19;2.25;;;2.15;;
57573;SDS011;68988;49.000;21.242;2024-02-28T02:52:45;4.00;;;2.22;;
57573;SDS011;68988;49.000;21.242;2024-02-28T02:55:10;2.45;;;2.35;;
57573;SDS011;68988;49.000;21.242;2024-02-28T02:57:35;2.63;;;2.53;;
57573;SDS011;68988;49.000;21.242;2024-02-28T03:00:01;2.72;;;2.53;;
57573;SDS011;68988;49.000;21.242;2024-02-28T03:02:26;2.70;;;2.50;;
57573;SDS011;68988;49.000;21.242;2024-02-28T03:04:51;2.17;;;2.08;;
57573;SDS011;68988;49.000;21.242;2024-02-28T03:07:17;2.50;;;2.40;;
57573;SDS011;68988;49.000;21.242;2024-02-28T03:09:42;2.53;;;2.42;;
57573;SDS011;68988;49.000;21.242;2024-02-28T03:12:07;2.45;;;2.25;;
57573;SDS011;68988;49.000;21.242;2024-02-28T03:14:34;2.38;;;2.22;;
57573;SDS011;68988;49.000;21.242;2024-02-28T03:17:00;2.38;;;2.28;;
57573;SDS011;68988;49.000;21.242;2024-02-28T03:19:25;2.38;;;2.28;;
57573;SDS011;68988;49.000;21.242;2024-02-28T03:21:51;2.38;;;2.28;;
57573;SDS011;68988;49.000;21.242;2024-02-28T03:24:16;2.28;;;2.17;;
57573;SDS011;68988;49.000;21.242;2024-02-28T03:26:42;2.28;;;2.17;;
57573;SDS011;68988;49.000;21.242;2024-02-28T03:29:08;2.10;;;2.00;;
57573;SDS011;68988;49.000;21.242;2024-02-28T03:31:33;2.80;;;2.60;;
57573;SDS011;68988;49.000;21.242;2024-02-28T03:33:59;2.47;;;2.28;;
57573;SDS011;68988;49.000;21.242;2024-02-28T03:36:24;2.35;;;2.22;;
57573;SDS011;68988;49.000;21.242;2024-02-28T03:38:50;2.58;;;2.38;;
57573;SDS011;68988;49.000;21.242;2024-02-28T03:41:15;2.33;;;2.22;;
57573;SDS011;68988;49.000;21.242;2024-02-28T03:43:41;2.83;;;2.63;;
57573;SDS011;68988;49.000;21.242;2024-02-28T03:46:06;2.55;;;2.45;;
57573;SDS011;68988;49.000;21.242;2024-02-28T03:48:31;2.55;;;2.45;;
57573;SDS011;68988;49.000;21.242;2024-02-28T03:50:57;2.55;;;2.45;;
57573;SDS011;68988;49.000;21.242;2024-02-28T03:53:22;2.67;;;2.47;;
57573;SDS011;68988;49.000;21.242;2024-02-28T03:55:48;2.30;;;2.20;;
57573;SDS011;68988;49.000;21.242;2024-02-28T03:58:13;2.50;;;2.40;;
57573;SDS011;68988;49.000;21.242;2024-02-28T04:00:38;2.20;;;2.10;;
57573;SDS011;68988;49.000;21.242;2024-02-28T04:03:05;2.70;;;2.60;;
57573;SDS011;68988;49.000;21.242;2024-02-28T04:05:30;2.20;;;2.10;;
57573;SDS011;68988;49.000;21.242;2024-02-28T04:07:56;2.20;;;2.10;;
57573;SDS011;68988;49.000;21.242;2024-02-28T04:10:21;2.30;;;2.20;;
57573;SDS011;68988;49.000;21.242;2024-02-28T04:12:46;2.08;;;1.98;;
57573;SDS011;68988;49.000;21.242;2024-02-28T04:15:12;2.22;;;2.13;;
57573;SDS011;68988;49.000;21.242;2024-02-28T04:17:38;2.50;;;2.40;;
57573;SDS011;68988;49.000;21.242;2024-02-28T04:20:07;2.63;;;2.53;;
57573;SDS011;68988;49.000;21.242;2024-02-28T04:22:36;2.75;;;2.55;;
57573;SDS011;68988;49.000;21.242;2024-02-28T04:25:03;2.20;;;2.10;;
57573;SDS011;68988;49.000;21.242;2024-02-28T04:27:29;4.00;;;2.95;;
57573;SDS011;68988;49.000;21.242;2024-02-28T04:29:55;2.47;;;2.38;;
57573;SDS011;68988;49.000;21.242;2024-02-28T04:32:20;2.50;;;2.40;;
57573;SDS011;68988;49.000;21.242;2024-02-28T04:34:45;2.25;;;2.15;;
57573;SDS011;68988;49.000;21.242;2024-02-28T04:37:11;2.70;;;2.28;;
57573;SDS011;68988;49.000;21.242;2024-02-28T04:39:36;2.40;;;2.30;;
57573;SDS011;68988;49.000;21.242;2024-02-28T04:42:01;2.97;;;2.83;;
57573;SDS011;68988;49.000;21.242;2024-02-28T04:44:27;2.65;;;2.55;;
57573;SDS011;68988;49.000;21.242;2024-02-28T04:46:52;2.78;;;2.67;;
57573;SDS011;68988;49.000;21.242;2024-02-28T04:49:18;2.50;;;2.40;;
57573;SDS011;68988;49.000;21.242;2024-02-28T04:51:43;2.30;;;2.20;;
57573;SDS011;68988;49.000;21.242;2024-02-28T04:54:08;2.47;;;2.38;;
57573;SDS011;68988;49.000;21.242;2024-02-28T04:56:38;2.60;;;2.50;;
57573;SDS011;68988;49.000;21.242;2024-02-28T04:59:05;2.58;;;2.45;;
57573;SDS011;68988;49.000;21.242;2024-02-28T05:01:30;2.63;;;2.53;;
57573;SDS011;68988;49.000;21.242;2024-02-28T05:03:56;2.60;;;2.47;;
57573;SDS011;68988;49.000;21.242;2024-02-28T05:06:21;2.40;;;2.30;;
57573;SDS011;68988;49.000;21.242;2024-02-28T05:08:47;2.60;;;2.50;;
57573;SDS011;68988;49.000;21.242;2024-02-28T05:11:12;2.55;;;2.45;;
57573;SDS011;68988;49.000;21.242;2024-02-28T05:13:37;2.72;;;2.63;;
57573;SDS011;68988;49.000;21.242;2024-02-28T05:16:03;6.25;;;2.22;;
57573;SDS011;68988;49.000;21.242;2024-02-28T05:18:28;2.50;;;2.40;;
57573;SDS011;68988;49.000;21.242;2024-02-28T05:20:54;2.50;;;2.40;;
57573;SDS011;68988;49.000;21.242;2024-02-28T05:23:19;2.42;;;2.33;;
57573;SDS011;68988;49.000;21.242;2024-02-28T05:25:46;2.60;;;2.40;;
57573;SDS011;68988;49.000;21.242;2024-02-28T05:28:11;2.13;;;2.03;;
57573;SDS011;68988;49.000;21.242;2024-02-28T05:30:36;2.70;;;2.60;;
57573;SDS011;68988;49.000;21.242;2024-02-28T05:33:02;2.40;;;2.20;;
57573;SDS011;68988;49.000;21.242;2024-02-28T05:35:27;2.50;;;2.30;;
57573;SDS011;68988;49.000;21.242;2024-02-28T05:37:53;18.98;;;12.05;;
57573;SDS011;68988;49.000;21.242;2024-02-28T05:40:19;23.13;;;14.10;;
57573;SDS011;68988;49.000;21.242;2024-02-28T05:42:45;23.48;;;13.82;;
57573;SDS011;68988;49.000;21.242;2024-02-28T05:45:10;31.98;;;15.43;;
57573;SDS011;68988;49.000;21.242;2024-02-28T05:47:35;33.25;;;16.10;;
57573;SDS011;68988;49.000;21.242;2024-02-28T05:50:01;18.98;;;11.95;;
57573;SDS011;68988;49.000;21.242;2024-02-28T05:52:26;22.40;;;10.43;;
57573;SDS011;68988;49.000;21.242;2024-02-28T05:54:52;11.50;;;9.70;;
57573;SDS011;68988;49.000;21.242;2024-02-28T05:57:18;13.23;;;10.13;;
57573;SDS011;68988;49.000;21.242;2024-02-28T05:59:43;15.45;;;9.80;;
57573;SDS011;68988;49.000;21.242;2024-02-28T06:02:08;15.38;;;8.70;;
57573;SDS011;68988;49.000;21.242;2024-02-28T06:04:34;19.52;;;9.10;;
57573;SDS011;68988;49.000;21.242;2024-02-28T06:06:59;19.33;;;9.40;;
57573;SDS011;68988;49.000;21.242;2024-02-28T06:09:25;9.88;;;8.88;;
57573;SDS011;68988;49.000;21.242;2024-02-28T06:11:52;10.52;;;9.13;;
57573;SDS011;68988;49.000;21.242;2024-02-28T06:14:18;9.65;;;8.55;;
57573;SDS011;68988;49.000;21.242;2024-02-28T06:16:46;14.68;;;9.00;;
57573;SDS011;68988;49.000;21.242;2024-02-28T06:19:12;14.43;;;8.80;;
57573;SDS011;68988;49.000;21.242;2024-02-28T06:21:37;13.75;;;8.93;;
57573;SDS011;68988;49.000;21.242;2024-02-28T06:24:02;14.75;;;8.38;;
57573;SDS011;68988;49.000;21.242;2024-02-28T06:26:29;10.35;;;8.32;;
57573;SDS011;68988;49.000;21.242;2024-02-28T06:28:56;16.70;;;8.65;;
57573;SDS011;68988;49.000;21.242;2024-02-28T06:31:26;9.10;;;8.10;;
57573;SDS011;68988;49.000;21.242;2024-02-28T06:33:54;10.13;;;8.40;;
57573;SDS011;68988;49.000;21.242;2024-02-28T06:36:20;8.65;;;7.75;;
57573;SDS011;68988;49.000;21.242;2024-02-28T06:38:45;9.90;;;8.70;;
57573;SDS011;68988;49.000;21.242;2024-02-28T06:41:11;10.38;;;8.57;;
57573;SDS011;68988;49.000;21.242;2024-02-28T06:43:36;11.93;;;7.72;;
57573;SDS011;68988;49.000;21.242;2024-02-28T06:46:02;8.52;;;7.82;;
57573;SDS011;68988;49.000;21.242;2024-02-28T06:48:28;9.25;;;8.35;;
57573;SDS011;68988;49.000;21.242;2024-02-28T06:50:54;16.20;;;8.30;;
57573;SDS011;68988;49.000;21.242;2024-02-28T06:53:19;8.15;;;7.32;;
57573;SDS011;68988;49.000;21.242;2024-02-28T06:55:44;12.55;;;7.80;;
57573;SDS011;68988;49.000;21.242;2024-02-28T06:58:10;7.43;;;6.80;;
57573;SDS011;68988;49.000;21.242;2024-02-28T07:00:36;8.02;;;7.28;;
57573;SDS011;68988;49.000;21.242;2024-02-28T07:03:01;8.38;;;7.07;;
57573;SDS011;68988;49.000;21.242;2024-02-28T07:05:26;7.30;;;6.80;;
57573;SDS011;68988;49.000;21.242;2024-02-28T07:07:52;11.23;;;6.78;;
57573;SDS011;68988;49.000;21.242;2024-02-28T07:10:17;7.97;;;7.10;;
57573;SDS011;68988;49.000;21.242;2024-02-28T07:12:43;7.63;;;6.90;;
57573;SDS011;68988;49.000;21.242;2024-02-28T07:15:08;7.85;;;7.15;;
57573;SDS011;68988;49.000;21.242;2024-02-28T07:17:33;11.38;;;7.25;;
57573;SDS011;68988;49.000;21.242;2024-02-28T07:19:59;8.00;;;7.13;;
57573;SDS011;68988;49.000;21.242;2024-02-28T07:22:24;7.30;;;6.75;;
57573;SDS011;68988;49.000;21.242;2024-02-28T07:24:50;9.35;;;7.10;;
57573;SDS011;68988;49.000;21.242;2024-02-28T07:27:16;7.78;;;7.00;;
57573;SDS011;68988;49.000;21.242;2024-02-28T07:29:41;9.05;;;6.93;;
57573;SDS011;68988;49.000;21.242;2024-02-28T07:32:07;11.50;;;6.95;;
57573;SDS011;68988;49.000;21.242;2024-02-28T07:34:32;8.38;;;7.05;;
57573;SDS011;68988;49.000;21.242;2024-02-28T07:36:59;9.43;;;6.88;;
57573;SDS011;68988;49.000;21.242;2024-02-28T07:39:24;9.40;;;6.47;;
57573;SDS011;68988;49.000;21.242;2024-02-28T07:41:50;6.88;;;6.25;;
57573;SDS011;68988;49.000;21.242;2024-02-28T07:44:15;7.80;;;7.00;;
57573;SDS011;68988;49.000;21.242;2024-02-28T07:46:41;13.13;;;6.95;;
57573;SDS011;68988;49.000;21.242;2024-02-28T07:49:07;8.75;;;6.95;;
57573;SDS011;68988;49.000;21.242;2024-02-28T07:51:33;8.95;;;6.45;;
57573;SDS011;68988;49.000;21.242;2024-02-28T07:53:58;12.27;;;7.38;;
57573;SDS011;68988;49.000;21.242;2024-02-28T07:56:24;15.13;;;6.85;;
57573;SDS011;68988;49.000;21.242;2024-02-28T07:58:49;8.82;;;6.80;;
57573;SDS011;68988;49.000;21.242;2024-02-28T08:01:15;8.73;;;5.97;;
57573;SDS011;68988;49.000;21.242;2024-02-28T08:03:41;6.38;;;5.82;;
57573;SDS011;68988;49.000;21.242;2024-02-28T08:06:07;7.07;;;6.40;;
57573;SDS011;68988;49.000;21.242;2024-02-28T08:08:33;6.55;;;6.05;;
57573;SDS011;68988;49.000;21.242;2024-02-28T08:10:59;6.72;;;6.10;;
57573;SDS011;68988;49.000;21.242;2024-02-28T08:13:25;12.35;;;6.57;;
57573;SDS011;68988;49.000;21.242;2024-02-28T08:15:53;7.55;;;6.03;;
57573;SDS011;68988;49.000;21.242;2024-02-28T08:18:19;7.53;;;6.28;;
57573;SDS011;68988;49.000;21.242;2024-02-28T08:20:44;6.57;;;6.07;;
57573;SDS011;68988;49.000;21.242;2024-02-28T08:23:10;6.97;;;5.50;;
57573;SDS011;68988;49.000;21.242;2024-02-28T08:25:35;7.93;;;6.05;;
57573;SDS011;68988;49.000;21.242;2024-02-28T08:28:01;10.73;;;5.60;;
57573;SDS011;68988;49.000;21.242;2024-02-28T08:30:26;7.68;;;6.05;;
57573;SDS011;68988;49.000;21.242;2024-02-28T08:32:51;7.60;;;5.75;;
57573;SDS011;68988;49.000;21.242;2024-02-28T08:35:18;6.60;;;6.10;;
57573;SDS011;68988;49.000;21.242;2024-02-28T08:37:43;6.50;;;5.90;;
57573;SDS011;68988;49.000;21.242;2024-02-28T08:40:09;7.22;;;6.10;;
57573;SDS011;68988;49.000;21.242;2024-02-28T08:42:36;6.07;;;5.60;;
57573;SDS011;68988;49.000;21.242;2024-02-28T08:45:01;6.60;;;5.97;;
57573;SDS011;68988;49.000;21.242;2024-02-28T08:47:28;9.80;;;5.95;;
57573;SDS011;68988;49.000;21.242;2024-02-28T08:49:53;5.88;;;5.47;;
57573;SDS011;68988;49.000;21.242;2024-02-28T08:52:19;6.30;;;5.90;;
57573;SDS011;68988;49.000;21.242;2024-02-28T08:54:45;7.22;;;6.57;;
57573;SDS011;68988;49.000;21.242;2024-02-28T08:57:11;9.73;;;6.20;;
57573;SDS011;68988;49.000;21.242;2024-02-28T08:59:36;6.60;;;5.93;;
57573;SDS011;68988;49.000;21.242;2024-02-28T09:02:02;6.00;;;5.60;;
57573;SDS011;68988;49.000;21.242;2024-02-28T09:04:28;5.95;;;5.43;;
57573;SDS011;68988;49.000;21.242;2024-02-28T09:06:53;6.10;;;5.65;;
57573;SDS011;68988;49.000;21.242;2024-02-28T09:09:19;7.45;;;5.65;;
57573;SDS011;68988;49.000;21.242;2024-02-28T09:11:44;6.88;;;6.20;;
57573;SDS011;68988;49.000;21.242;2024-02-28T09:14:09;6.38;;;5.88;;
57573;SDS011;68988;49.000;21.242;2024-02-28T09:16:35;10.35;;;5.88;;
57573;SDS011;68988;49.000;21.242;2024-02-28T09:19:00;15.13;;;5.97;;
57573;SDS011;68988;49.000;21.242;2024-02-28T09:21:25;9.02;;;5.88;;
57573;SDS011;68988;49.000;21.242;2024-02-28T09:23:51;7.65;;;5.80;;
57573;SDS011;68988;49.000;21.242;2024-02-28T09:26:16;10.25;;;5.70;;
57573;SDS011;68988;49.000;21.242;2024-02-28T09:28:41;8.52;;;5.60;;
57573;SDS011;68988;49.000;21.242;2024-02-28T09:31:07;12.32;;;6.03;;
57573;SDS011;68988;49.000;21.242;2024-02-28T09:33:32;7.53;;;5.13;;
57573;SDS011;68988;49.000;21.242;2024-02-28T09:35:57;10.45;;;5.75;;
57573;SDS011;68988;49.000;21.242;2024-02-28T09:38:23;9.75;;;5.32;;
57573;SDS011;68988;49.000;21.242;2024-02-28T09:40:48;11.52;;;5.55;;
57573;SDS011;68988;49.000;21.242;2024-02-28T09:43:24;8.45;;;5.80;;
57573;SDS011;68988;49.000;21.242;2024-02-28T09:45:59;9.05;;;5.97;;
57573;SDS011;68988;49.000;21.242;2024-02-28T09:48:28;11.48;;;5.90;;
57573;SDS011;68988;49.000;21.242;2024-02-28T09:50:54;8.68;;;5.60;;
57573;SDS011;68988;49.000;21.242;2024-02-28T09:53:20;11.80;;;5.50;;
57573;SDS011;68988;49.000;21.242;2024-02-28T09:55:47;10.23;;;5.95;;
57573;SDS011;68988;49.000;21.242;2024-02-28T09:58:14;14.45;;;5.60;;
57573;SDS011;68988;49.000;21.242;2024-02-28T10:00:40;13.13;;;6.13;;
57573;SDS011;68988;49.000;21.242;2024-02-28T10:03:09;6.47;;;5.88;;
57573;SDS011;68988;49.000;21.242;2024-02-28T10:05:36;6.90;;;5.53;;
57573;SDS011;68988;49.000;21.242;2024-02-28T10:08:04;6.00;;;5.38;;
57573;SDS011;68988;49.000;21.242;2024-02-28T10:10:30;10.07;;;5.45;;
57573;SDS011;68988;49.000;21.242;2024-02-28T10:12:56;14.20;;;5.45;;
57573;SDS011;68988;49.000;21.242;2024-02-28T10:15:21;5.53;;;4.97;;
57573;SDS011;68988;49.000;21.242;2024-02-28T10:17:47;15.75;;;5.60;;
57573;SDS011;68988;49.000;21.242;2024-02-28T10:20:13;6.47;;;5.50;;
57573;SDS011;68988;49.000;21.242;2024-02-28T10:22:39;10.32;;;5.47;;
57573;SDS011;68988;49.000;21.242;2024-02-28T10:25:05;7.60;;;5.85;;
57573;SDS011;68988;49.000;21.242;2024-02-28T10:27:34;6.13;;;5.20;;
57573;SDS011;68988;49.000;21.242;2024-02-28T10:30:00;8.82;;;5.63;;
57573;SDS011;68988;49.000;21.242;2024-02-28T10:32:29;6.60;;;4.97;;
57573;SDS011;68988;49.000;21.242;2024-02-28T10:34:56;10.82;;;5.43;;
57573;SDS011;68988;49.000;21.242;2024-02-28T10:37:23;6.68;;;5.35;;
57573;SDS011;68988;49.000;21.242;2024-02-28T10:39:50;7.00;;;4.88;;
57573;SDS011;68988;49.000;21.242;2024-02-28T10:42:17;5.80;;;5.22;;
57573;SDS011;68988;49.000;21.242;2024-02-28T10:44:43;5.78;;;5.15;;
57573;SDS011;68988;49.000;21.242;2024-02-28T10:47:09;10.13;;;5.38;;
57573;SDS011;68988;49.000;21.242;2024-02-28T10:49:36;6.07;;;5.47;;
57573;SDS011;68988;49.000;21.242;2024-02-28T10:52:01;5.63;;;5.03;;
57573;SDS011;68988;49.000;21.242;2024-02-28T10:54:29;6.60;;;4.68;;
57573;SDS011;68988;49.000;21.242;2024-02-28T10:56:55;8.20;;;5.13;;
57573;SDS011;68988;49.000;21.242;2024-02-28T10:59:22;5.68;;;4.85;;
57573;SDS011;68988;49.000;21.242;2024-02-28T11:01:50;5.38;;;4.72;;
57573;SDS011;68988;49.000;21.242;2024-02-28T11:04:16;5.55;;;5.07;;
57573;SDS011;68988;49.000;21.242;2024-02-28T11:07:18;6.75;;;4.85;;
57573;SDS011;68988;49.000;21.242;2024-02-28T11:09:33;14.63;;;5.53;;
57573;SDS011;68988;49.000;21.242;2024-02-28T11:11:59;8.52;;;5.40;;
57573;SDS011;68988;49.000;21.242;2024-02-28T11:14:24;8.27;;;5.45;;
57573;SDS011;68988;49.000;21.242;2024-02-28T11:19:28;6.85;;;4.93;;
57573;SDS011;68988;49.000;21.242;2024-02-28T11:21:55;6.65;;;5.28;;
57573;SDS011;68988;49.000;21.242;2024-02-28T11:24:23;8.13;;;4.88;;
57573;SDS011;68988;49.000;21.242;2024-02-28T11:26:52;16.20;;;5.60;;
57573;SDS011;68988;49.000;21.242;2024-02-28T11:31:50;6.18;;;5.55;;
57573;SDS011;68988;49.000;21.242;2024-02-28T11:34:16;5.43;;;5.03;;
57573;SDS011;68988;49.000;21.242;2024-02-28T11:36:41;5.32;;;4.90;;
57573;SDS011;68988;49.000;21.242;2024-02-28T11:39:07;8.43;;;5.13;;
57573;SDS011;68988;49.000;21.242;2024-02-28T11:41:32;14.55;;;5.13;;
57573;SDS011;68988;49.000;21.242;2024-02-28T11:43:58;5.75;;;5.10;;
57573;SDS011;68988;49.000;21.242;2024-02-28T11:46:23;8.02;;;4.90;;
57573;SDS011;68988;49.000;21.242;2024-02-28T11:48:49;5.80;;;5.15;;
57573;SDS011;68988;49.000;21.242;2024-02-28T11:51:14;8.15;;;4.72;;
57573;SDS011;68988;49.000;21.242;2024-02-28T11:53:40;5.40;;;4.90;;
57573;SDS011;68988;49.000;21.242;2024-02-28T11:56:05;5.05;;;4.38;;
57573;SDS011;68988;49.000;21.242;2024-02-28T11:58:33;11.82;;;5.32;;
57573;SDS011;68988;49.000;21.242;2024-02-28T12:00:58;11.07;;;4.55;;
57573;SDS011;68988;49.000;21.242;2024-02-28T12:03:24;18.35;;;5.25;;
57573;SDS011;68988;49.000;21.242;2024-02-28T12:05:50;10.07;;;4.85;;
57573;SDS011;68988;49.000;21.242;2024-02-28T12:08:17;8.80;;;5.07;;
57573;SDS011;68988;49.000;21.242;2024-02-28T12:10:46;7.50;;;5.45;;
57573;SDS011;68988;49.000;21.242;2024-02-28T12:13:15;5.20;;;4.80;;
57573;SDS011;68988;49.000;21.242;2024-02-28T12:15:42;6.85;;;5.03;;
57573;SDS011;68988;49.000;21.242;2024-02-28T12:18:08;11.35;;;4.85;;
57573;SDS011;68988;49.000;21.242;2024-02-28T12:20:35;6.43;;;5.10;;
57573;SDS011;68988;49.000;21.242;2024-02-28T12:23:02;7.28;;;4.85;;
57573;SDS011;68988;49.000;21.242;2024-02-28T12:25:27;5.60;;;4.53;;
57573;SDS011;68988;49.000;21.242;2024-02-28T12:27:53;6.85;;;4.80;;
57573;SDS011;68988;49.000;21.242;2024-02-28T12:30:18;10.57;;;5.03;;
57573;SDS011;68988;49.000;21.242;2024-02-28T12:32:43;5.43;;;4.93;;
57573;SDS011;68988;49.000;21.242;2024-02-28T12:35:09;8.50;;;4.97;;
57573;SDS011;68988;49.000;21.242;2024-02-28T12:37:34;4.68;;;4.28;;
57573;SDS011;68988;49.000;21.242;2024-02-28T12:40:00;6.47;;;4.72;;
57573;SDS011;68988;49.000;21.242;2024-02-28T12:42:25;4.82;;;4.47;;
57573;SDS011;68988;49.000;21.242;2024-02-28T12:44:51;5.15;;;4.57;;
57573;SDS011;68988;49.000;21.242;2024-02-28T12:47:16;35.08;;;4.70;;
57573;SDS011;68988;49.000;21.242;2024-02-28T12:49:42;5.55;;;5.05;;
57573;SDS011;68988;49.000;21.242;2024-02-28T12:52:07;5.15;;;4.65;;
57573;SDS011;68988;49.000;21.242;2024-02-28T12:54:33;5.22;;;4.60;;
57573;SDS011;68988;49.000;21.242;2024-02-28T12:56:58;5.20;;;4.35;;
57573;SDS011;68988;49.000;21.242;2024-02-28T12:59:27;5.07;;;4.60;;
57573;SDS011;68988;49.000;21.242;2024-02-28T13:01:53;7.63;;;4.80;;
57573;SDS011;68988;49.000;21.242;2024-02-28T13:04:18;5.25;;;4.45;;
57573;SDS011;68988;49.000;21.242;2024-02-28T13:06:44;12.77;;;4.72;;
57573;SDS011;68988;49.000;21.242;2024-02-28T13:09:09;5.90;;;4.25;;
57573;SDS011;68988;49.000;21.242;2024-02-28T13:11:37;6.45;;;4.63;;
57573;SDS011;68988;49.000;21.242;2024-02-28T13:14:03;9.02;;;4.80;;
57573;SDS011;68988;49.000;21.242;2024-02-28T13:16:29;5.90;;;4.50;;
57573;SDS011;68988;49.000;21.242;2024-02-28T13:18:55;5.05;;;4.57;;
57573;SDS011;68988;49.000;21.242;2024-02-28T13:21:20;7.10;;;4.63;;
57573;SDS011;68988;49.000;21.242;2024-02-28T13:23:45;6.32;;;4.70;;
57573;SDS011;68988;49.000;21.242;2024-02-28T13:26:11;6.20;;;4.80;;
57573;SDS011;68988;49.000;21.242;2024-02-28T13:28:42;5.13;;;4.40;;
57573;SDS011;68988;49.000;21.242;2024-02-28T13:31:09;4.75;;;4.35;;
57573;SDS011;68988;49.000;21.242;2024-02-28T13:33:34;4.60;;;4.20;;
57573;SDS011;68988;49.000;21.242;2024-02-28T13:36:02;6.72;;;4.68;;
57573;SDS011;68988;49.000;21.242;2024-02-28T13:38:27;7.72;;;4.90;;
57573;SDS011;68988;49.000;21.242;2024-02-28T13:40:52;10.82;;;4.63;;
57573;SDS011;68988;49.000;21.242;2024-02-28T13:43:18;6.50;;;4.55;;
57573;SDS011;68988;49.000;21.242;2024-02-28T13:45:47;4.60;;;4.20;;
57573;SDS011;68988;49.000;21.242;2024-02-28T13:48:18;4.88;;;4.47;;
57573;SDS011;68988;49.000;21.242;2024-02-28T13:50:53;8.73;;;4.38;;
57573;SDS011;68988;49.000;21.242;2024-02-28T13:53:19;6.15;;;4.47;;
57573;SDS011;68988;49.000;21.242;2024-02-28T13:55:44;5.78;;;4.25;;
57573;SDS011;68988;49.000;21.242;2024-02-28T13:58:13;9.82;;;4.40;;
57573;SDS011;68988;49.000;21.242;2024-02-28T14:00:40;5.88;;;4.28;;
57573;SDS011;68988;49.000;21.242;2024-02-28T14:03:07;4.15;;;3.85;;
57573;SDS011;68988;49.000;21.242;2024-02-28T14:05:32;4.65;;;4.10;;
57573;SDS011;68988;49.000;21.242;2024-02-28T14:07:58;4.82;;;4.32;;
57573;SDS011;68988;49.000;21.242;2024-02-28T14:10:24;8.40;;;4.22;;
57573;SDS011;68988;49.000;21.242;2024-02-28T14:12:50;7.53;;;3.97;;
57573;SDS011;68988;49.000;21.242;2024-02-28T14:15:17;8.25;;;4.32;;
57573;SDS011;68988;49.000;21.242;2024-02-28T14:17:43;13.30;;;4.32;;
57573;SDS011;68988;49.000;21.242;2024-02-28T14:20:09;4.60;;;4.18;;
57573;SDS011;68988;49.000;21.242;2024-02-28T14:22:35;9.82;;;4.68;;
57573;SDS011;68988;49.000;21.242;2024-02-28T14:25:00;6.65;;;4.00;;
57573;SDS011;68988;49.000;21.242;2024-02-28T14:27:26;5.97;;;4.25;;